| |
Missouri Department of Transportation

Social Media Facebook Twitter Flickr Blog YouTube RSS

Current AWOS Information

 
AWOS Home - General Info for all Airports
Current AWOS for all Airports - Current METAR for all Airports
Glossary - Disclaimer - Other Links


MARSHALL--MARSHALL MEMORIAL MUNICIPAL--KMHL
 
Recent AWOS History
 
11/24/14     09:22 PM CST      03:22 GMT
Air Temperature 48°F (9°C ) 1st Cloud Layer Overcast at 1,100 feet
Dew Point 46°F (8°C) 2nd Cloud Layer  
Barometric Pressure 29.34 in Hg. 3rd Cloud Layer  
Wind Speed 16 mph (14 knots) Density Altitude  
Peak Wind Gusts 27 mph (24 knots) Variable Wind Directions  
Wind Direction Quadrant(310°) Variable Visibility  
Visibility 4 statute miles  

Thunderstorm and Precipitation Identification:  Moderate Rain
Thunderstorm Remarks: 

Current METAR Record: METAR KMHL 240326Z AUTO 32019G23KT 4SM RA OVC011 09/08 A2934 RMK AO2 P0003

 

 

 

About Us
How Do I...
Contact Us
Missouri Department of Transportation
Central Office
105 W. Capitol Avenue
Jefferson City, MO 65102
1-888-ASK-MODOT (275-6636)
1-866-831-6277 (Motor Carrier Services)
Drivers License Offices
horz_bar
| | |
Missouri State Government
© 2013 Missouri Department of Transportation. All Rights Reserved.   Privacy Policy.
 
 
 
 
RSS FeedYoutubeBlogFlickrTwitter Facebook